Terminal Aerodrome Forecast
Issued by NWS

Home | Current Version | Previous Version | Text Only | Print | Product List | Glossary On
Versions: 1 2 3 4 5 6 7 8 9 10 11 12 13 14 15 16 17 18 19 20 21 22
000
FTUS43 KICT 040809 AAA
TAFHUT
TAF AMD
KHUT 040809Z 0408/0506 01017G26KT 6SM -SN OVC035
      TEMPO 0408/0412 3SM -SN OVC020
     FM041800 02013KT P6SM SCT020 BKN100
     FM050000 01007KT P6SM SCT120=

USA.gov is the U.S. government's official web portal to all federal, state and local government web resources and services.